Batemans Bay, Australia

11:31 AM AEDT on January 23, 2017 (GMT +1100)
Maloneys Beach | | Change Station

Elev 33 ft 35.71 °S, 150.25 °E | Updated 1 minute ago

Clear
Clear
82.3 °F
Feels Like 85 °F
N
5.0
Wind Variable Wind from NNE
Gusts 11.0 mph

Today
High -- | Low -- °F
--% Chance of Precip.
Yesterday
High -- | Low -- °F
Precip. -- in
Pressure 29.86 in
Visibility -9999.0 miles
Clouds
Heat Index 85 °F
Dew Point 68 °F
Humidity 63%
Rainfall 0.00 in
Snow Depth Not available.
6:07 AM 8:14 PM
Waning Crescent, 22% visible
METAR YSNW 230000Z 06005KT 010V090 CAVOK 28/16 Q1011 NOSIG
Pressure 29.86 in
Visibility -9999.0 miles
Clouds
Heat Index 85 °F
Dew Point 68 °F
Humidity 63%
Rainfall 0.00 in
Snow Depth Not available.
6:07 AM 8:14 PM
Waning Crescent, 22% visible
METAR YSNW 230000Z 06005KT 010V090 CAVOK 28/16 Q1011 NOSIG

Get Your Daily Forecast Email!

Thanks for signing up!

Be on the lookout for a verification email in your inbox.

You'll start receiving the daily forecast at 8 AM.

×

10-Day Weather Forecast

×

Almanac

Astronomy

Jan. 23, 2017 Rise Set
Actual Time
Civil Twilight
Nautical Twilight
Astronomical Twilight
Moon
Length of Visible Light
Length of Day
Tomorrow will be .
, % of the Moon is Illuminated

Today's Extremes

Country Highs Country Lows

Community

WunderPhotos

Upload Photos

1,962,540 photos uploaded!

WunderBlog® & News

Nearby

Air Quality

  Air Quality AQ Index Pollutant
Not available.

Snow Depth

Station Depth Elevation

Earthquake Activity

City Distance Mag. Time & Date
Minimum magnitude displayed is 2.5.

Coastal Water Temperatures

Place Temperature

Stations

Nearby Weather Stations

Station Location Temp. Windchill Dew Point Humidity Wind Precip. Elev Updated Type